Time;durP1;ratioP1;P1;durP2;ratioP2;P2;SDS_P1;SDS_P2;PMS_P1;PMS_P2;Temp;Humidity;BMP_temperature;BMP_pressure;BME280_temperature;BME280_humidity;BME280_pressure;Samples;Min_cycle;Max_cycle;Signal;HPM_P1;HPM_P2
2022/05/15 00:01:35;;;;;;;29.50;8.13;;;;;;;;;;5059163;27;97290;-77
2022/05/15 00:04:02;;;;;;;26.42;7.13;;;;;;;;;;5070647;27;95407;-78
2022/05/15 00:06:28;;;;;;;34.90;7.72;;;;;;;;;;5069943;27;96571;-78
2022/05/15 00:08:54;;;;;;;31.08;8.70;;;;;;;;;;5065676;27;99392;-78
2022/05/15 00:11:21;;;;;;;28.77;7.57;;;;;;;;;;5068374;27;96829;-78
2022/05/15 00:13:47;;;;;;;28.20;8.07;;;;;;;;;;5074621;27;96887;-77
2022/05/15 00:16:14;;;;;;;26.08;7.85;;;;;;;;;;5070962;27;95368;-77
2022/05/15 00:18:40;;;;;;;25.05;6.70;;;;;;;;;;5070987;27;96816;-78
2022/05/15 00:21:07;;;;;;;25.05;6.38;;;;;;;;;;5073679;27;97293;-76
2022/05/15 00:23:33;;;;;;;23.55;6.85;;;;;;;;;;5064266;27;96896;-78
2022/05/15 00:26:00;;;;;;;31.13;6.63;;;;;;;;;;5065450;27;96890;-76
2022/05/15 00:28:26;;;;;;;22.65;6.80;;;;;;;;;;5073626;27;97841;-78
2022/05/15 00:30:53;;;;;;;29.77;6.88;;;;;;;;;;5074789;27;95207;-77
2022/05/15 00:33:19;;;;;;;25.77;7.28;;;;;;;;;;5064043;27;95682;-78
2022/05/15 00:35:45;;;;;;;27.25;7.10;;;;;;;;;;5074954;27;97437;-78
2022/05/15 00:38:12;;;;;;;33.67;7.10;;;;;;;;;;5071955;27;95749;-78
2022/05/15 00:40:40;;;;;;;34.83;6.93;;;;;;;;;;5072270;27;97698;-77
2022/05/15 00:43:25;;;;;;;28.52;7.65;;;;;;;;;;5074250;27;95184;-78
2022/05/15 00:45:51;;;;;;;27.58;7.18;;;;;;;;;;5070391;27;96735;-79
2022/05/15 00:48:18;;;;;;;24.85;6.65;;;;;;;;;;5074040;27;96360;-78
2022/05/15 00:50:44;;;;;;;33.35;8.18;;;;;;;;;;5075120;27;95364;-78
2022/05/15 00:53:11;;;;;;;32.85;7.70;;;;;;;;;;5073581;27;96783;-78
2022/05/15 00:55:40;;;;;;;31.52;7.28;;;;;;;;;;5064533;27;97692;-78
2022/05/15 00:58:12;;;;;;;28.05;6.95;;;;;;;;;;5077909;27;95503;-76
2022/05/15 01:00:40;;;;;;;28.45;7.07;;;;;;;;;;5064319;27;97417;-77
2022/05/15 01:03:08;;;;;;;28.88;7.78;;;;;;;;;;5070202;27;97184;-77
2022/05/15 01:05:36;;;;;;;28.67;7.40;;;;;;;;;;5074871;27;96006;-77
2022/05/15 01:08:03;;;;;;;28.67;7.93;;;;;;;;;;5073929;27;97700;-77
2022/05/15 01:10:29;;;;;;;30.75;7.65;;;;;;;;;;5065864;27;95340;-77
2022/05/15 01:12:57;;;;;;;30.20;7.65;;;;;;;;;;5071816;27;97175;-77
2022/05/15 01:15:24;;;;;;;30.90;7.05;;;;;;;;;;5072117;27;97400;-76
2022/05/15 01:17:51;;;;;;;31.23;6.93;;;;;;;;;;5065758;27;95384;-73
2022/05/15 01:20:19;;;;;;;29.25;7.65;;;;;;;;;;5073400;27;96641;-76
2022/05/15 01:22:46;;;;;;;24.95;7.28;;;;;;;;;;5073077;27;95488;-76
2022/05/15 01:25:16;;;;;;;29.10;6.88;;;;;;;;;;5075008;27;97163;-76
2022/05/15 01:27:49;;;;;;;33.75;7.80;;;;;;;;;;5072496;27;97484;-76
2022/05/15 01:30:16;;;;;;;29.80;7.85;;;;;;;;;;5073717;27;95407;-75
2022/05/15 01:32:43;;;;;;;31.67;7.85;;;;;;;;;;5073029;27;95678;-76
2022/05/15 01:35:09;;;;;;;27.20;7.60;;;;;;;;;;5070835;27;97474;-73
2022/05/15 01:37:36;;;;;;;25.42;6.82;;;;;;;;;;5072975;27;95489;-75
2022/05/15 01:40:03;;;;;;;27.92;6.93;;;;;;;;;;5073938;27;96897;-75
2022/05/15 01:42:30;;;;;;;23.92;7.30;;;;;;;;;;5077386;27;97409;-75
2022/05/15 01:44:56;;;;;;;37.08;7.60;;;;;;;;;;5073185;27;96817;-76
2022/05/15 01:47:23;;;;;;;30.13;8.30;;;;;;;;;;5072871;27;97392;-76
2022/05/15 01:49:49;;;;;;;40.83;8.48;;;;;;;;;;5072641;27;95372;-74
2022/05/15 01:52:15;;;;;;;27.60;7.65;;;;;;;;;;5074142;27;96736;-74
2022/05/15 01:54:42;;;;;;;25.65;7.40;;;;;;;;;;5072025;27;97365;-75
2022/05/15 01:57:08;;;;;;;27.13;7.20;;;;;;;;;;5072630;27;95238;-75
2022/05/15 01:59:34;;;;;;;30.08;8.13;;;;;;;;;;5071466;27;95707;-76
2022/05/15 02:02:01;;;;;;;32.08;7.82;;;;;;;;;;5074549;27;97863;-74
2022/05/15 02:04:27;;;;;;;28.45;8.32;;;;;;;;;;5072078;27;96726;-76
2022/05/15 02:06:54;;;;;;;31.75;8.07;;;;;;;;;;5074228;27;97449;-74
2022/05/15 02:09:20;;;;;;;22.17;7.07;;;;;;;;;;5072889;27;96826;-75
2022/05/15 02:11:46;;;;;;;23.35;7.13;;;;;;;;;;5072195;27;97221;-76
2022/05/15 02:14:12;;;;;;;28.00;7.78;;;;;;;;;;5072480;27;97436;-75
2022/05/15 02:16:39;;;;;;;31.73;8.40;;;;;;;;;;5071946;27;97027;-76
2022/05/15 02:19:06;;;;;;;38.22;8.00;;;;;;;;;;5072203;27;95565;-74
2022/05/15 02:21:32;;;;;;;27.60;7.22;;;;;;;;;;5072607;27;97514;-76
2022/05/15 02:23:59;;;;;;;28.52;7.50;;;;;;;;;;5067236;27;95737;-77
2022/05/15 02:26:25;;;;;;;24.13;7.22;;;;;;;;;;5070905;27;97146;-76
2022/05/15 02:28:51;;;;;;;22.70;7.18;;;;;;;;;;5073271;27;95429;-76
2022/05/15 02:31:18;;;;;;;23.95;7.47;;;;;;;;;;5072049;27;99065;-76
2022/05/15 02:33:44;;;;;;;24.67;6.72;;;;;;;;;;5073052;27;97320;-76
2022/05/15 02:36:10;;;;;;;27.83;7.15;;;;;;;;;;5071462;27;95266;-78
2022/05/15 02:38:37;;;;;;;22.77;6.60;;;;;;;;;;5071166;27;96794;-76
2022/05/15 02:41:04;;;;;;;23.20;7.72;;;;;;;;;;5070080;27;96705;-77
2022/05/15 02:43:30;;;;;;;24.20;6.97;;;;;;;;;;5073592;27;96334;-76
2022/05/15 02:45:56;;;;;;;20.25;6.50;;;;;;;;;;5073793;27;96798;-77
2022/05/15 02:51:08;;;;;;;25.90;7.78;;;;;;;;;;5070328;27;96816;-75
2022/05/15 02:53:36;;;;;;;24.55;6.35;;;;;;;;;;5066509;27;97282;-74
2022/05/15 02:56:05;;;;;;;21.40;6.72;;;;;;;;;;5064201;27;95457;-75
2022/05/15 02:58:31;;;;;;;28.35;7.65;;;;;;;;;;5072283;27;96793;-76
2022/05/15 03:00:57;;;;;;;29.77;7.38;;;;;;;;;;5071575;27;97440;-75
2022/05/15 03:03:24;;;;;;;27.08;6.90;;;;;;;;;;5072733;27;96505;-76
2022/05/15 03:05:51;;;;;;;23.42;7.22;;;;;;;;;;5069521;27;96833;-77
2022/05/15 03:08:17;;;;;;;24.17;6.95;;;;;;;;;;5076268;27;97371;-76
2022/05/15 03:10:43;;;;;;;25.17;7.47;;;;;;;;;;5071536;27;96864;-75
2022/05/15 03:13:10;;;;;;;25.25;7.65;;;;;;;;;;5061632;27;96663;-74
2022/05/15 03:15:37;;;;;;;27.95;8.07;;;;;;;;;;5071335;27;95845;-77
2022/05/15 03:18:04;;;;;;;26.17;7.32;;;;;;;;;;5067623;27;96554;-76
2022/05/15 03:20:30;;;;;;;25.20;7.25;;;;;;;;;;5071482;27;97463;-76
2022/05/15 03:22:57;;;;;;;23.33;8.35;;;;;;;;;;5064933;27;95481;-76
2022/05/15 03:25:26;;;;;;;26.13;7.50;;;;;;;;;;5067856;27;97096;-77
2022/05/15 03:27:53;;;;;;;25.13;7.72;;;;;;;;;;5067917;27;97705;-75
2022/05/15 03:30:19;;;;;;;27.83;8.73;;;;;;;;;;5059060;27;95301;-75
2022/05/15 03:32:45;;;;;;;18.23;6.90;;;;;;;;;;5071878;27;97381;-77
2022/05/15 03:35:14;;;;;;;28.08;7.70;;;;;;;;;;5069926;27;95496;-76
2022/05/15 03:37:41;;;;;;;29.38;8.80;;;;;;;;;;5072042;27;96995;-76
2022/05/15 03:40:10;;;;;;;29.13;7.93;;;;;;;;;;5070321;27;97467;-76
2022/05/15 03:42:37;;;;;;;19.75;7.18;;;;;;;;;;5069447;27;95521;-76
2022/05/15 03:45:04;;;;;;;26.40;7.20;;;;;;;;;;5070537;27;96631;-76
2022/05/15 03:47:30;;;;;;;24.58;7.13;;;;;;;;;;5065077;27;97436;-76
2022/05/15 03:50:00;;;;;;;27.75;7.55;;;;;;;;;;5071310;27;95458;-76
2022/05/15 03:52:27;;;;;;;38.78;8.10;;;;;;;;;;5075126;27;97118;-76
2022/05/15 03:54:53;;;;;;;30.30;7.72;;;;;;;;;;5075209;27;95398;-77
2022/05/15 03:57:19;;;;;;;26.23;7.57;;;;;;;;;;5065784;27;97056;-77
2022/05/15 03:59:46;;;;;;;23.77;7.13;;;;;;;;;;5061375;27;97293;-77
2022/05/15 04:02:12;;;;;;;29.50;7.63;;;;;;;;;;5072381;27;95514;-78
2022/05/15 04:04:38;;;;;;;26.73;7.30;;;;;;;;;;5074348;27;96793;-77
2022/05/15 04:07:10;;;;;;;31.05;7.50;;;;;;;;;;5075157;27;98334;-77
2022/05/15 04:09:40;;;;;;;27.13;7.50;;;;;;;;;;5073977;27;96232;-77
2022/05/15 04:12:08;;;;;;;30.10;8.02;;;;;;;;;;5074750;27;97340;-77
2022/05/15 04:14:34;;;;;;;21.50;7.25;;;;;;;;;;5075105;27;95230;-76
2022/05/15 04:17:00;;;;;;;23.05;7.78;;;;;;;;;;5075293;27;97451;-77
2022/05/15 04:19:27;;;;;;;31.95;8.70;;;;;;;;;;5071229;27;97322;-77
2022/05/15 04:21:53;;;;;;;25.58;7.93;;;;;;;;;;5071392;27;95162;-76
2022/05/15 04:24:19;;;;;;;27.55;7.72;;;;;;;;;;5075134;27;96652;-76
2022/05/15 04:26:49;;;;;;;23.52;7.47;;;;;;;;;;5063406;27;96994;-74
2022/05/15 04:29:15;;;;;;;32.95;8.60;;;;;;;;;;5074823;27;95442;-74
2022/05/15 04:31:42;;;;;;;24.33;8.48;;;;;;;;;;5072920;27;96831;-74
2022/05/15 04:34:08;;;;;;;28.23;7.70;;;;;;;;;;5078698;27;97381;-75
2022/05/15 04:36:35;;;;;;;28.65;8.30;;;;;;;;;;5073379;27;97023;-75
2022/05/15 04:39:02;;;;;;;29.48;7.72;;;;;;;;;;5058525;27;97367;-75
2022/05/15 04:41:28;;;;;;;26.65;7.65;;;;;;;;;;5073530;27;96735;-77
2022/05/15 04:43:55;;;;;;;27.52;7.20;;;;;;;;;;5072626;27;97115;-76
2022/05/15 04:46:22;;;;;;;27.50;7.68;;;;;;;;;;5074715;27;97469;-77
2022/05/15 04:48:50;;;;;;;26.95;8.02;;;;;;;;;;5075055;27;95405;-78
2022/05/15 04:51:17;;;;;;;26.42;8.20;;;;;;;;;;5073861;27;97355;-76
2022/05/15 04:53:47;;;;;;;30.90;7.90;;;;;;;;;;5074111;27;97829;-77
2022/05/15 04:56:13;;;;;;;34.97;9.25;;;;;;;;;;5077055;27;95580;-75
2022/05/15 04:58:39;;;;;;;26.05;7.50;;;;;;;;;;5067334;27;97224;-76
2022/05/15 05:01:06;;;;;;;23.20;7.10;;;;;;;;;;5074823;27;95313;-77
2022/05/15 05:03:32;;;;;;;26.70;7.55;;;;;;;;;;5068326;27;96816;-75
2022/05/15 19:33:48;;;;;;;9.55;3.13;;;;;;;;;;5043130;27;96206;-78
2022/05/15 19:36:17;;;;;;;13.13;3.25;;;;;;;;;;5027003;28;97832;-77
2022/05/15 19:38:44;;;;;;;14.10;3.30;;;;;;;;;;5027730;28;95186;-77
2022/05/15 19:41:10;;;;;;;12.38;3.50;;;;;;;;;;5028318;28;96905;-76
2022/05/15 19:43:37;;;;;;;11.27;3.15;;;;;;;;;;5024054;28;97095;-75
2022/05/15 19:46:03;;;;;;;14.63;3.58;;;;;;;;;;5028536;28;95728;-77
2022/05/15 19:48:32;;;;;;;9.18;3.20;;;;;;;;;;5026434;28;97239;-77
2022/05/15 19:51:02;;;;;;;11.73;3.10;;;;;;;;;;5027164;27;97717;-77
2022/05/15 19:53:29;;;;;;;13.18;3.50;;;;;;;;;;5029072;28;95250;-74
2022/05/15 19:55:56;;;;;;;14.32;3.33;;;;;;;;;;5026851;28;97370;-74
2022/05/15 19:58:22;;;;;;;11.63;3.63;;;;;;;;;;5026933;28;95388;-74
2022/05/15 20:00:51;;;;;;;12.02;3.50;;;;;;;;;;5027496;28;96848;-74
2022/05/15 20:03:17;;;;;;;15.95;3.30;;;;;;;;;;5021215;28;97321;-74
2022/05/15 20:11:30;;;;;;;11.82;3.38;;;;;;;;;;5023220;28;97413;-73
2022/05/15 20:13:57;;;;;;;19.52;3.53;;;;;;;;;;5022485;28;97762;-76
2022/05/15 20:16:23;;;;;;;13.00;3.75;;;;;;;;;;5031385;28;97145;-77
2022/05/15 20:18:50;;;;;;;13.05;3.63;;;;;;;;;;5028193;28;96641;-75
2022/05/15 20:21:16;;;;;;;13.77;3.10;;;;;;;;;;5026501;28;96856;-73
2022/05/15 20:23:43;;;;;;;15.07;3.30;;;;;;;;;;5028377;28;95971;-75
2022/05/15 20:26:11;;;;;;;11.45;3.60;;;;;;;;;;5028017;28;95257;-76
2022/05/15 20:28:38;;;;;;;12.43;3.10;;;;;;;;;;5026016;28;98347;-76
2022/05/15 20:31:05;;;;;;;13.32;3.70;;;;;;;;;;5022006;28;97568;-76
2022/05/15 20:33:33;;;;;;;13.20;3.83;;;;;;;;;;5046465;27;95506;-76
2022/05/15 20:35:59;;;;;;;12.68;3.45;;;;;;;;;;5031486;27;96922;-76
2022/05/15 20:38:25;;;;;;;13.43;3.70;;;;;;;;;;5051791;27;97732;-73
2022/05/15 20:40:52;;;;;;;11.18;3.40;;;;;;;;;;5048435;27;97812;-74
2022/05/15 20:43:18;;;;;;;13.45;3.47;;;;;;;;;;5042950;27;97475;-75
2022/05/15 20:45:44;;;;;;;13.98;3.47;;;;;;;;;;5015592;28;95525;-73
2022/05/15 20:48:11;;;;;;;10.45;3.50;;;;;;;;;;5033202;28;96799;-72
2022/05/15 20:50:38;;;;;;;11.55;3.65;;;;;;;;;;5032759;28;97351;-71
2022/05/15 20:53:04;;;;;;;15.95;3.70;;;;;;;;;;5034939;28;95275;-72
2022/05/15 20:55:30;;;;;;;15.15;3.72;;;;;;;;;;5016228;28;96638;-72
2022/05/15 20:57:57;;;;;;;12.68;3.60;;;;;;;;;;5034337;28;97400;-72
2022/05/15 21:00:23;;;;;;;11.85;3.90;;;;;;;;;;5017943;28;95328;-73
2022/05/15 21:02:52;;;;;;;11.20;3.42;;;;;;;;;;5016836;28;97321;-73
2022/05/15 21:05:18;;;;;;;16.88;4.20;;;;;;;;;;5033897;28;95568;-74
2022/05/15 21:07:45;;;;;;;14.57;3.60;;;;;;;;;;5034208;28;96513;-74
2022/05/15 21:10:15;;;;;;;10.73;3.83;;;;;;;;;;5032525;28;97425;-73
2022/05/15 21:12:42;;;;;;;13.63;3.70;;;;;;;;;;5034839;28;95310;-73
2022/05/15 21:15:09;;;;;;;12.10;3.92;;;;;;;;;;5033447;28;96735;-73
2022/05/15 21:17:39;;;;;;;13.05;3.38;;;;;;;;;;5034009;28;97463;-73
2022/05/15 21:20:06;;;;;;;10.77;3.53;;;;;;;;;;5015756;28;95662;-74
2022/05/15 21:22:32;;;;;;;12.52;3.35;;;;;;;;;;5036119;28;96858;-75
2022/05/15 21:24:59;;;;;;;11.23;4.22;;;;;;;;;;5015933;28;95473;-77
2022/05/15 21:27:25;;;;;;;13.10;3.97;;;;;;;;;;5032378;28;97026;-77
2022/05/15 21:29:51;;;;;;;13.15;3.35;;;;;;;;;;5033558;28;97765;-77
2022/05/15 21:32:18;;;;;;;13.05;3.60;;;;;;;;;;5033447;28;95254;-77
2022/05/15 21:34:44;;;;;;;15.30;3.70;;;;;;;;;;5034059;28;96911;-77
2022/05/15 21:37:10;;;;;;;13.88;3.60;;;;;;;;;;5032042;28;97334;-76
2022/05/15 21:45:08;;;;;;;10.40;3.33;;;;;;;;;;5036832;28;95394;-75
2022/05/15 21:47:36;;;;;;;11.07;3.63;;;;;;;;;;5032399;28;95931;-76
2022/05/15 21:50:02;;;;;;;11.38;3.55;;;;;;;;;;5033089;28;96696;-77
2022/05/15 21:52:28;;;;;;;15.45;3.80;;;;;;;;;;5033478;28;95203;-76
2022/05/15 21:54:55;;;;;;;13.07;3.58;;;;;;;;;;5015358;28;97222;-75
2022/05/15 21:57:22;;;;;;;12.43;3.40;;;;;;;;;;5031790;28;97784;-74
2022/05/15 22:00:11;;;;;;;13.32;3.22;;;;;;;;;;5032652;28;95375;-74
2022/05/15 22:02:37;;;;;;;13.20;4.00;;;;;;;;;;5032980;28;96802;-76
2022/05/15 22:05:04;;;;;;;15.48;3.65;;;;;;;;;;5036049;28;97343;-76
2022/05/15 22:07:32;;;;;;;12.27;3.47;;;;;;;;;;5033370;28;96848;-76
2022/05/15 22:09:59;;;;;;;12.75;3.50;;;;;;;;;;5015275;28;97265;-73
2022/05/15 22:12:25;;;;;;;15.55;3.67;;;;;;;;;;5032920;28;95239;-73
2022/05/15 22:14:52;;;;;;;12.77;3.55;;;;;;;;;;5033379;28;96902;-74
2022/05/15 22:17:18;;;;;;;14.70;3.75;;;;;;;;;;5032959;28;97533;-73
2022/05/15 22:19:48;;;;;;;12.82;4.03;;;;;;;;;;5027001;28;95632;-75
2022/05/15 22:22:16;;;;;;;14.23;3.60;;;;;;;;;;5021390;28;96729;-73
2022/05/15 22:24:43;;;;;;;12.32;3.70;;;;;;;;;;5015202;28;97659;-73
2022/05/15 22:27:09;;;;;;;15.13;3.63;;;;;;;;;;5017936;28;96283;-73
2022/05/15 22:29:36;;;;;;;12.30;3.85;;;;;;;;;;5021170;28;97717;-73
2022/05/15 22:32:02;;;;;;;11.35;3.63;;;;;;;;;;5023974;28;95453;-73
2022/05/15 22:34:29;;;;;;;16.50;3.35;;;;;;;;;;5033898;28;95585;-73
2022/05/15 22:36:56;;;;;;;11.48;3.15;;;;;;;;;;5027360;28;97406;-73
2022/05/15 22:39:22;;;;;;;10.68;3.22;;;;;;;;;;5019245;28;95391;-73
2022/05/15 22:41:49;;;;;;;14.95;3.92;;;;;;;;;;5033010;28;96710;-73
2022/05/15 22:44:15;;;;;;;12.40;3.30;;;;;;;;;;5030752;28;97287;-73
2022/05/15 22:46:42;;;;;;;9.63;3.28;;;;;;;;;;5018390;28;95452;-73
2022/05/15 22:49:09;;;;;;;14.68;3.60;;;;;;;;;;5020194;28;96955;-73
2022/05/15 22:51:35;;;;;;;10.50;3.65;;;;;;;;;;5028218;28;96661;-73
2022/05/15 22:54:02;;;;;;;14.15;3.25;;;;;;;;;;5031934;28;97141;-73
2022/05/15 22:56:28;;;;;;;15.07;3.85;;;;;;;;;;5029281;28;97410;-73
2022/05/15 22:58:55;;;;;;;10.43;3.55;;;;;;;;;;5030792;28;96054;-73
2022/05/15 23:01:22;;;;;;;13.25;3.15;;;;;;;;;;5029969;28;97164;-73
2022/05/15 23:03:48;;;;;;;15.77;3.60;;;;;;;;;;5013005;28;98110;-73
2022/05/15 23:08:59;;;;;;;13.50;3.75;;;;;;;;;;5020263;28;96831;-74
2022/05/15 23:11:25;;;;;;;10.48;3.03;;;;;;;;;;5032780;28;97446;-73
2022/05/15 23:13:52;;;;;;;8.50;2.92;;;;;;;;;;5018520;28;97284;-74
2022/05/15 23:16:18;;;;;;;15.02;4.05;;;;;;;;;;5020323;28;97764;-73
2022/05/15 23:18:46;;;;;;;11.38;3.90;;;;;;;;;;5032138;28;95351;-73
2022/05/15 23:21:12;;;;;;;12.18;3.70;;;;;;;;;;5030248;28;96794;-73
2022/05/15 23:23:39;;;;;;;12.80;3.38;;;;;;;;;;5028962;28;97670;-73
2022/05/15 23:26:05;;;;;;;15.38;4.05;;;;;;;;;;5021356;28;95986;-74
2022/05/15 23:28:32;;;;;;;9.50;3.10;;;;;;;;;;5030313;28;97098;-73
2022/05/15 23:30:59;;;;;;;10.38;3.20;;;;;;;;;;5025472;28;97670;-73
2022/05/15 23:33:26;;;;;;;10.95;3.42;;;;;;;;;;5016394;28;96324;-73
2022/05/15 23:35:53;;;;;;;12.15;3.78;;;;;;;;;;5012786;28;97419;-73
2022/05/15 23:38:19;;;;;;;18.98;3.88;;;;;;;;;;5026817;28;95414;-74
2022/05/15 23:40:46;;;;;;;12.20;3.28;;;;;;;;;;5011152;28;97139;-73
2022/05/15 23:43:12;;;;;;;11.90;3.28;;;;;;;;;;5017172;28;97418;-74
2022/05/15 23:45:39;;;;;;;11.95;3.50;;;;;;;;;;5012389;28;95459;-74
2022/05/15 23:48:06;;;;;;;13.88;3.50;;;;;;;;;;5012352;28;97302;-73
2022/05/15 23:50:32;;;;;;;12.00;3.60;;;;;;;;;;5018747;28;97529;-76
2022/05/15 23:52:59;;;;;;;16.58;3.85;;;;;;;;;;5034272;28;95217;-77
2022/05/15 23:55:25;;;;;;;12.95;3.88;;;;;;;;;;5027668;28;97501;-75
2022/05/15 23:57:52;;;;;;;16.00;3.72;;;;;;;;;;5012442;28;95324;-73
